createdAt,value
2022-12-27T00:00:10.644Z,2.28
2022-12-27T00:02:42.080Z,3.78
2022-12-27T00:05:11.590Z,2.85
2022-12-27T00:07:39.543Z,3.00
2022-12-27T00:10:08.562Z,2.25
2022-12-27T00:12:40.015Z,2.97
2022-12-27T00:15:08.370Z,2.10
2022-12-27T00:17:36.757Z,4.20
2022-12-27T00:20:11.016Z,2.65
2022-12-27T00:22:43.793Z,1.70
2022-12-27T00:25:11.670Z,2.90
2022-12-27T00:27:40.851Z,3.10
2022-12-27T00:30:09.652Z,5.82
2022-12-27T00:32:37.543Z,2.67
2022-12-27T00:35:05.707Z,2.60
2022-12-27T00:37:34.043Z,2.78
2022-12-27T00:40:05.085Z,3.45
2022-12-27T00:42:36.349Z,6.28
2022-12-27T00:45:06.047Z,4.28
2022-12-27T00:47:34.193Z,2.00
2022-12-27T00:50:05.641Z,2.72
2022-12-27T00:52:33.454Z,3.97
2022-12-27T00:55:01.535Z,4.70
2022-12-27T00:57:33.165Z,2.10
2022-12-27T01:00:06.202Z,3.92
2022-12-27T01:02:41.249Z,3.33
2022-12-27T01:05:12.322Z,3.35
2022-12-27T01:07:43.098Z,2.28
2022-12-27T01:10:11.409Z,3.28
2022-12-27T01:12:39.935Z,2.72
2022-12-27T01:15:09.151Z,3.60
2022-12-27T01:17:40.442Z,2.95
2022-12-27T01:20:11.358Z,2.83
2022-12-27T01:22:42.731Z,2.15
2022-12-27T01:25:10.702Z,2.50
2022-12-27T01:27:40.031Z,3.60
2022-12-27T01:30:09.152Z,3.12
2022-12-27T01:32:36.968Z,2.67
2022-12-27T01:35:05.017Z,2.03
2022-12-27T01:37:33.340Z,2.28
2022-12-27T01:40:01.190Z,3.00
2022-12-27T01:42:47.451Z,2.28
2022-12-27T01:45:24.848Z,2.10
2022-12-27T01:47:55.549Z,2.50
2022-12-27T01:50:26.951Z,2.42
2022-12-27T01:53:17.326Z,3.65
2022-12-27T01:56:02.123Z,3.45
2022-12-27T01:59:01.737Z,2.60
2022-12-27T02:01:44.415Z,3.25
2022-12-27T02:04:19.279Z,2.83
2022-12-27T02:06:48.528Z,3.05
2022-12-27T02:09:38.723Z,2.65
2022-12-27T02:12:09.446Z,2.95
2022-12-27T02:14:46.804Z,2.67
2022-12-27T02:17:29.855Z,2.47
2022-12-27T02:20:17.895Z,2.25
2022-12-27T02:23:39.997Z,2.05
2022-12-27T02:26:41.683Z,2.87
2022-12-27T02:29:27.777Z,3.75
2022-12-27T02:32:30.032Z,5.10
2022-12-27T02:35:14.423Z,2.87
2022-12-27T02:37:49.248Z,3.72
2022-12-27T02:40:40.845Z,2.92
2022-12-27T02:43:28.073Z,2.87
2022-12-27T02:46:29.687Z,2.53
2022-12-27T02:49:17.948Z,3.85
2022-12-27T02:52:27.931Z,3.15
2022-12-27T02:54:58.207Z,4.35
2022-12-27T02:57:32.842Z,3.90
2022-12-27T03:00:30.734Z,3.15
2022-12-27T03:03:22.008Z,4.30
2022-12-27T03:06:35.750Z,3.17
2022-12-27T03:09:45.470Z,2.50
2022-12-27T03:13:07.052Z,3.08
2022-12-27T03:15:54.013Z,4.53
2022-12-27T03:18:28.133Z,3.65
2022-12-27T03:21:18.758Z,2.62
2022-12-27T03:24:08.255Z,3.62
2022-12-27T03:26:39.938Z,3.28
2022-12-27T03:29:27.813Z,3.53
2022-12-27T03:32:20.175Z,3.33
2022-12-27T03:35:01.036Z,3.00
2022-12-27T03:37:55.323Z,4.05
2022-12-27T03:40:23.163Z,4.40
2022-12-27T03:43:17.959Z,3.78
2022-12-27T03:46:34.483Z,7.85
2022-12-27T03:49:21.049Z,3.80
2022-12-27T03:51:58.700Z,3.08
2022-12-27T03:54:32.690Z,3.47
2022-12-27T03:57:27.016Z,4.28
2022-12-27T03:59:58.200Z,3.40
2022-12-27T04:02:26.160Z,3.10
2022-12-27T04:04:54.766Z,3.25
2022-12-27T04:07:22.650Z,2.35
2022-12-27T04:10:09.196Z,3.67
2022-12-27T04:12:56.123Z,3.78
2022-12-27T04:15:42.534Z,4.85
2022-12-27T04:18:29.301Z,3.55
2022-12-27T04:21:16.555Z,3.62
2022-12-27T04:24:02.988Z,5.07
2022-12-27T04:26:49.268Z,2.72
2022-12-27T04:29:36.033Z,3.40
2022-12-27T04:32:22.541Z,4.72
2022-12-27T04:34:53.368Z,3.72
2022-12-27T04:37:21.670Z,2.25
2022-12-27T04:40:08.003Z,5.97
2022-12-27T04:42:55.116Z,3.80
2022-12-27T04:45:42.226Z,3.67
2022-12-27T04:48:33.565Z,3.60
2022-12-27T04:51:20.474Z,6.45
2022-12-27T04:54:07.166Z,4.72
2022-12-27T04:56:35.075Z,5.80
2022-12-27T04:59:21.537Z,3.47
2022-12-27T05:02:04.794Z,5.07
2022-12-27T05:04:36.455Z,4.00
2022-12-27T05:07:26.726Z,4.80
2022-12-27T05:10:13.781Z,5.70
2022-12-27T05:13:00.224Z,4.28
2022-12-27T05:15:31.204Z,4.43
2022-12-27T05:17:59.243Z,4.90
2022-12-27T05:20:27.030Z,4.32
2022-12-27T05:23:16.603Z,3.50
2022-12-27T05:25:47.803Z,3.15
2022-12-27T05:28:18.930Z,3.80
2022-12-27T05:30:49.918Z,4.25
2022-12-27T05:33:21.228Z,5.55
2022-12-27T05:35:51.872Z,3.80
2022-12-27T05:38:20.139Z,4.32
2022-12-27T05:40:47.928Z,4.95
2022-12-27T05:43:15.802Z,3.97
2022-12-27T05:45:44.023Z,4.97
2022-12-27T05:48:12.177Z,5.05
2022-12-27T05:50:40.060Z,4.55
2022-12-27T05:53:11.596Z,4.55
2022-12-27T05:55:39.479Z,5.12
2022-12-27T05:58:07.507Z,3.33
2022-12-27T06:00:38.302Z,4.40
2022-12-27T06:03:06.575Z,4.65
2022-12-27T06:05:34.500Z,6.28
2022-12-27T06:08:02.420Z,5.18
2022-12-27T06:10:30.921Z,3.70
2022-12-27T06:13:05.735Z,3.83
2022-12-27T06:15:34.249Z,6.43
2022-12-27T06:18:03.797Z,4.50
2022-12-27T06:20:34.974Z,4.80
2022-12-27T06:23:03.113Z,5.20
2022-12-27T06:25:30.919Z,4.60
2022-12-27T06:27:58.944Z,5.07
2022-12-27T06:30:29.322Z,4.85
2022-12-27T06:33:00.659Z,6.93
2022-12-27T06:35:28.714Z,4.55
2022-12-27T06:37:56.594Z,6.12
2022-12-27T06:40:24.460Z,5.15
2022-12-27T06:42:52.516Z,5.15
2022-12-27T06:45:20.383Z,5.65
2022-12-27T06:47:51.529Z,4.25
2022-12-27T06:50:19.723Z,5.70
2022-12-27T06:52:47.388Z,4.80
2022-12-27T06:55:15.392Z,6.15
2022-12-27T06:57:43.598Z,5.85
2022-12-27T07:00:13.728Z,5.90
2022-12-27T07:02:41.570Z,3.95
2022-12-27T07:05:09.788Z,8.98
2022-12-27T07:07:37.593Z,4.47
2022-12-27T07:10:05.586Z,5.45
2022-12-27T07:12:36.803Z,4.75
2022-12-27T07:15:07.247Z,5.05
2022-12-27T07:17:36.641Z,4.72
2022-12-27T07:20:05.682Z,4.72
2022-12-27T07:22:33.727Z,4.65
2022-12-27T07:25:01.907Z,5.70
2022-12-27T07:27:34.684Z,5.62
2022-12-27T07:30:04.414Z,7.20
2022-12-27T07:32:32.988Z,5.18
2022-12-27T07:35:04.242Z,5.25
2022-12-27T07:37:35.328Z,5.35
2022-12-27T07:40:04.300Z,4.15
2022-12-27T07:42:32.397Z,6.15
2022-12-27T07:45:00.162Z,6.10
2022-12-27T07:47:28.549Z,6.30
2022-12-27T07:49:56.825Z,4.78
2022-12-27T07:52:27.333Z,6.18
2022-12-27T07:54:58.155Z,4.80
2022-12-27T07:57:26.327Z,6.55
2022-12-27T07:59:54.218Z,5.45
2022-12-27T08:02:22.247Z,7.28
2022-12-27T08:04:50.483Z,6.12
2022-12-27T08:07:20.337Z,6.82
2022-12-27T08:09:49.326Z,4.65
2022-12-27T08:12:17.708Z,4.80
2022-12-27T08:14:45.981Z,5.15
2022-12-27T08:17:22.952Z,5.32
2022-12-27T08:19:52.580Z,4.57
2022-12-27T08:22:21.479Z,7.70
2022-12-27T08:24:49.638Z,5.22
2022-12-27T08:27:25.098Z,7.68
2022-12-27T08:29:52.784Z,4.95
2022-12-27T08:32:24.192Z,6.47
2022-12-27T08:34:52.087Z,5.78
2022-12-27T08:37:19.932Z,5.62
2022-12-27T08:39:48.221Z,5.75
2022-12-27T08:42:16.039Z,4.55
2022-12-27T08:44:44.467Z,4.35
2022-12-27T08:47:13.455Z,7.03
2022-12-27T08:49:41.286Z,4.40
2022-12-27T08:52:12.177Z,6.22
2022-12-27T08:54:40.339Z,6.65
2022-12-27T08:57:08.220Z,6.78
2022-12-27T08:59:36.089Z,3.87
2022-12-27T09:02:04.327Z,12.27
2022-12-27T09:04:35.442Z,16.15
2022-12-27T09:07:04.039Z,8.65
2022-12-27T09:09:32.466Z,8.10
2022-12-27T09:12:03.135Z,8.18
2022-12-27T09:14:35.926Z,8.68
2022-12-27T09:17:03.834Z,5.07
2022-12-27T09:19:32.045Z,5.97
2022-12-27T09:22:00.304Z,6.70
2022-12-27T09:24:31.010Z,6.72
2022-12-27T09:26:58.824Z,6.75
2022-12-27T09:29:27.025Z,5.78
2022-12-27T09:31:58.273Z,6.43
2022-12-27T09:34:25.990Z,7.47
2022-12-27T09:36:54.188Z,6.03
2022-12-27T09:39:22.702Z,5.18
2022-12-27T09:42:47.641Z,5.90
2022-12-27T09:45:16.285Z,5.03
2022-12-27T09:48:11.036Z,7.78
2022-12-27T09:50:52.781Z,4.75
2022-12-27T09:53:51.461Z,5.45
2022-12-27T09:56:47.355Z,3.58
2022-12-27T09:59:32.315Z,3.83
2022-12-27T10:05:09.930Z,4.35
2022-12-27T10:07:44.598Z,5.00
2022-12-27T10:10:35.559Z,5.10
2022-12-27T10:13:12.571Z,6.97
2022-12-27T10:16:18.421Z,7.03
2022-12-27T10:19:13.552Z,5.35
2022-12-27T10:21:58.959Z,6.47
2022-12-27T10:24:51.763Z,7.37
2022-12-27T10:27:24.022Z,7.37
2022-12-27T10:29:54.449Z,5.90
2022-12-27T10:32:22.973Z,7.03
2022-12-27T10:34:56.980Z,7.82
2022-12-27T10:37:25.293Z,5.03
2022-12-27T10:39:53.160Z,5.95
2022-12-27T10:42:37.591Z,7.40
2022-12-27T10:45:26.620Z,6.97
2022-12-27T10:48:16.830Z,7.07
2022-12-27T10:50:51.790Z,7.10
2022-12-27T10:53:33.659Z,6.65
2022-12-27T10:56:13.840Z,6.62
2022-12-27T10:58:43.071Z,6.55
2022-12-27T11:01:24.979Z,6.78
2022-12-27T11:04:14.343Z,9.38
2022-12-27T11:07:18.236Z,6.80
2022-12-27T11:09:51.185Z,9.05
2022-12-27T11:12:24.464Z,5.72
2022-12-27T11:15:00.351Z,7.43
2022-12-27T11:17:48.876Z,5.97
2022-12-27T11:20:29.480Z,7.97
2022-12-27T11:23:05.972Z,6.53
2022-12-27T11:25:34.637Z,9.55
2022-12-27T11:28:07.215Z,6.50
2022-12-27T11:30:57.675Z,7.78
2022-12-27T11:33:39.550Z,8.57
2022-12-27T11:36:12.301Z,6.40
2022-12-27T11:38:47.813Z,7.72
2022-12-27T11:41:31.549Z,6.35
2022-12-27T11:44:20.856Z,6.62
2022-12-27T11:47:20.014Z,7.45
2022-12-27T11:50:06.274Z,9.77
2022-12-27T11:52:47.200Z,9.32
2022-12-27T11:55:46.307Z,10.07
2022-12-27T11:58:44.793Z,10.02
2022-12-27T12:01:38.813Z,9.70
2022-12-27T12:04:28.483Z,9.07
2022-12-27T12:06:59.492Z,9.30
2022-12-27T12:09:56.679Z,5.32
2022-12-27T12:13:09.131Z,5.82
2022-12-27T12:15:59.354Z,7.30
2022-12-27T12:18:39.144Z,5.47
2022-12-27T12:21:29.016Z,6.82
2022-12-27T12:24:02.715Z,7.62
2022-12-27T12:27:07.406Z,5.82
2022-12-27T12:30:02.699Z,8.02
2022-12-27T12:33:01.155Z,7.30
2022-12-27T12:35:46.881Z,8.75
2022-12-27T12:38:22.202Z,9.15
2022-12-27T12:40:52.105Z,7.95
2022-12-27T12:49:44.578Z,11.68
2022-12-27T12:53:16.921Z,10.20
2022-12-27T12:55:51.233Z,13.50
2022-12-27T12:58:50.784Z,10.25
2022-12-27T13:01:30.790Z,8.65
2022-12-27T13:04:34.503Z,8.35
2022-12-27T13:07:41.621Z,8.80
2022-12-27T13:10:27.895Z,12.15
2022-12-27T13:13:08.606Z,10.93
2022-12-27T13:16:24.182Z,6.57
2022-12-27T13:19:19.079Z,11.35
2022-12-27T13:22:16.435Z,8.65
2022-12-27T13:25:18.855Z,9.00
2022-12-27T13:28:01.657Z,11.57
2022-12-27T13:33:28.195Z,10.43
2022-12-27T13:36:11.928Z,17.55
2022-12-27T13:41:50.379Z,11.88
2022-12-27T13:44:26.895Z,10.18
2022-12-27T13:47:21.373Z,9.63
2022-12-27T13:50:17.259Z,13.25
2022-12-27T13:59:43.439Z,24.40
2022-12-27T14:02:32.984Z,13.27
2022-12-27T14:05:20.026Z,12.95
2022-12-27T14:08:12.635Z,13.85
2022-12-27T14:10:58.649Z,13.30
2022-12-27T14:13:36.832Z,13.55
2022-12-27T14:16:33.253Z,14.20
2022-12-27T14:19:31.927Z,10.88
2022-12-27T14:22:42.476Z,13.20
2022-12-27T14:25:31.682Z,12.48
2022-12-27T14:28:05.420Z,12.68
2022-12-27T14:31:04.440Z,13.32
2022-12-27T14:33:39.753Z,16.10
2022-12-27T14:36:32.689Z,11.77
2022-12-27T14:39:38.591Z,13.07
2022-12-27T14:42:36.811Z,11.15
2022-12-27T14:45:45.912Z,9.80
2022-12-27T14:48:28.977Z,15.70
2022-12-27T14:51:26.202Z,14.05
2022-12-27T14:54:27.131Z,12.45
2022-12-27T14:57:15.090Z,12.80
2022-12-27T15:00:03.910Z,10.02
2022-12-27T15:02:35.314Z,13.23
2022-12-27T15:05:41.318Z,12.63
2022-12-27T15:08:37.857Z,11.25
2022-12-27T15:11:20.908Z,15.18
2022-12-27T15:14:04.507Z,12.55
2022-12-27T15:16:52.334Z,13.35
2022-12-27T15:19:38.907Z,9.65
2022-12-27T15:22:31.213Z,9.40
2022-12-27T15:25:15.626Z,12.30
2022-12-27T15:28:00.094Z,6.20
2022-12-27T15:30:45.808Z,6.62
2022-12-27T15:33:51.791Z,18.05
2022-12-27T15:36:36.316Z,15.30
2022-12-27T15:39:04.958Z,14.20
2022-12-27T15:41:33.032Z,15.02
2022-12-27T15:44:19.930Z,16.33
2022-12-27T15:47:10.114Z,12.95
2022-12-27T15:49:53.121Z,14.05
2022-12-27T15:52:53.556Z,11.05
2022-12-27T15:55:59.373Z,10.07
2022-12-27T15:58:29.359Z,13.30
2022-12-27T16:01:25.796Z,11.75
2022-12-27T16:03:58.774Z,14.00
2022-12-27T16:06:44.649Z,12.57
2022-12-27T16:09:35.917Z,10.43
2022-12-27T16:12:41.938Z,16.73
2022-12-27T16:15:35.119Z,9.68
2022-12-27T16:18:04.053Z,12.30
2022-12-27T16:20:33.580Z,11.75
2022-12-27T16:23:08.239Z,12.48
2022-12-27T16:25:41.575Z,13.38
2022-12-27T16:28:26.333Z,10.30
2022-12-27T16:30:57.036Z,17.23
2022-12-27T16:33:28.416Z,13.50
2022-12-27T16:36:15.313Z,10.15
2022-12-27T16:38:46.263Z,11.70
2022-12-27T16:41:27.531Z,10.90
2022-12-27T16:44:24.070Z,12.90
2022-12-27T16:47:27.893Z,13.88
2022-12-27T16:50:08.267Z,12.35
2022-12-27T16:53:17.861Z,13.55
2022-12-27T16:56:15.423Z,11.70
2022-12-27T16:58:43.905Z,11.90
2022-12-27T17:01:26.729Z,24.42
2022-12-27T17:03:58.613Z,25.55
2022-12-27T17:06:33.561Z,14.45
2022-12-27T17:09:11.328Z,13.50
2022-12-27T17:11:48.639Z,12.23
2022-12-27T17:14:26.137Z,17.73
2022-12-27T17:17:00.668Z,13.07
2022-12-27T17:19:33.178Z,12.35
2022-12-27T17:22:04.070Z,9.55
2022-12-27T17:24:32.670Z,10.18
2022-12-27T17:27:12.355Z,10.02
2022-12-27T17:29:55.571Z,11.70
2022-12-27T17:32:55.121Z,12.90
2022-12-27T17:35:28.569Z,12.18
2022-12-27T17:38:20.411Z,11.85
2022-12-27T17:41:04.310Z,7.78
2022-12-27T17:44:17.576Z,13.65
2022-12-27T17:46:57.826Z,13.25
2022-12-27T17:49:31.371Z,11.40
2022-12-27T17:52:23.191Z,11.80
2022-12-27T17:55:09.702Z,10.10
2022-12-27T18:00:45.128Z,10.20
2022-12-27T18:03:15.092Z,12.25
2022-12-27T18:05:49.429Z,12.07
2022-12-27T18:08:29.936Z,9.30
2022-12-27T18:11:03.406Z,13.45
2022-12-27T18:13:45.489Z,10.75
2022-12-27T18:16:18.821Z,12.02
2022-12-27T18:18:49.751Z,10.60
2022-12-27T18:21:24.503Z,11.68
2022-12-27T18:23:54.008Z,11.90
2022-12-27T18:26:38.244Z,11.38
2022-12-27T18:29:11.456Z,11.35
2022-12-27T18:31:50.536Z,12.98
2022-12-27T18:34:26.140Z,8.68
2022-12-27T18:36:59.422Z,15.02
2022-12-27T18:39:32.731Z,12.82
2022-12-27T18:44:53.222Z,10.90
2022-12-27T18:47:25.011Z,11.65
2022-12-27T18:49:57.316Z,10.82
2022-12-27T18:52:38.679Z,13.10
2022-12-27T18:55:23.970Z,8.85
2022-12-27T18:58:04.996Z,10.75
2022-12-27T19:00:46.620Z,7.95
2022-12-27T19:03:17.579Z,8.13
2022-12-27T19:06:12.093Z,11.38
2022-12-27T19:08:46.590Z,6.87
2022-12-27T19:11:36.182Z,7.82
2022-12-27T19:14:05.652Z,8.50
2022-12-27T19:16:36.082Z,9.55
2022-12-27T19:19:15.084Z,8.90
2022-12-27T19:21:43.254Z,8.38
2022-12-27T19:24:29.727Z,10.88
2022-12-27T19:27:03.498Z,9.32
2022-12-27T19:29:37.929Z,11.30
2022-12-27T19:32:17.054Z,8.02
2022-12-27T19:34:49.414Z,10.57
2022-12-27T19:37:18.478Z,9.55
2022-12-27T19:39:48.151Z,8.25
2022-12-27T19:42:26.858Z,9.07
2022-12-27T19:44:55.576Z,8.07
2022-12-27T19:47:23.649Z,10.43
2022-12-27T19:49:51.385Z,7.47
2022-12-27T19:52:22.895Z,10.75
2022-12-27T19:54:57.892Z,10.52
2022-12-27T19:57:26.237Z,9.80
2022-12-27T19:59:58.517Z,7.87
2022-12-27T20:02:27.218Z,8.82
2022-12-27T20:04:55.457Z,9.52
2022-12-27T20:07:26.378Z,6.93
2022-12-27T20:09:54.448Z,9.90
2022-12-27T20:12:22.823Z,5.18
2022-12-27T20:14:50.848Z,7.70
2022-12-27T20:17:18.690Z,8.68
2022-12-27T20:22:32.378Z,6.55
2022-12-27T20:25:00.430Z,8.07
2022-12-27T20:27:28.393Z,7.90
2022-12-27T20:29:56.135Z,7.93
2022-12-27T20:32:24.313Z,6.53
2022-12-27T20:34:52.482Z,5.97
2022-12-27T20:37:24.821Z,6.00
2022-12-27T20:39:53.378Z,7.20
2022-12-27T20:42:24.801Z,7.22
2022-12-27T20:44:53.111Z,5.35
2022-12-27T20:47:21.051Z,13.40
2022-12-27T20:49:48.909Z,10.90
2022-12-27T20:52:17.312Z,11.65
2022-12-27T20:54:45.257Z,8.85
2022-12-27T20:57:13.194Z,8.27
2022-12-27T20:59:41.424Z,8.30
2022-12-27T21:02:12.574Z,8.73
2022-12-27T21:04:43.356Z,6.65
2022-12-27T21:07:11.380Z,8.50
2022-12-27T21:09:39.189Z,7.72
2022-12-27T21:12:07.041Z,6.00
2022-12-27T21:14:35.307Z,7.20
2022-12-27T21:17:03.504Z,8.70
2022-12-27T21:19:31.906Z,7.45
2022-12-27T21:22:00.391Z,9.38
2022-12-27T21:24:28.282Z,5.18
2022-12-27T21:26:59.542Z,7.20
2022-12-27T21:29:27.813Z,6.70
2022-12-27T21:31:55.731Z,7.65
2022-12-27T21:34:23.651Z,8.15
2022-12-27T21:36:54.878Z,7.25
2022-12-27T21:39:22.710Z,6.18
2022-12-27T21:41:50.530Z,8.23
2022-12-27T21:44:19.089Z,4.53
2022-12-27T21:46:48.557Z,5.55
2022-12-27T21:49:16.456Z,7.80
2022-12-27T21:51:44.940Z,6.93
2022-12-27T21:54:14.121Z,6.53
2022-12-27T21:56:45.199Z,5.40
2022-12-27T21:59:13.529Z,4.85
2022-12-27T22:01:51.932Z,9.00
2022-12-27T22:04:21.991Z,5.82
2022-12-27T22:06:50.060Z,5.32
2022-12-27T22:09:22.240Z,5.43
2022-12-27T22:11:50.693Z,7.00
2022-12-27T22:14:25.411Z,3.83
2022-12-27T22:16:54.260Z,5.32
2022-12-27T22:19:22.174Z,5.50
2022-12-27T22:21:49.989Z,8.60
2022-12-27T22:24:20.088Z,7.75
2022-12-27T22:26:48.889Z,9.45
2022-12-27T22:29:19.680Z,7.78
2022-12-27T22:31:47.918Z,6.93
2022-12-27T22:34:15.770Z,8.20
2022-12-27T22:36:43.652Z,6.65
2022-12-27T22:39:11.928Z,6.45
2022-12-27T22:41:39.717Z,9.18
2022-12-27T22:44:16.935Z,7.82
2022-12-27T22:47:23.814Z,7.35
2022-12-27T22:49:33.191Z,6.32
2022-12-27T22:52:01.640Z,5.12
2022-12-27T22:55:03.398Z,8.10
2022-12-27T22:57:17.737Z,6.93
2022-12-27T22:59:48.354Z,7.35
2022-12-27T23:02:16.277Z,7.37
2022-12-27T23:04:44.680Z,8.65
2022-12-27T23:07:12.639Z,7.12
2022-12-27T23:09:43.409Z,7.95
2022-12-27T23:12:13.011Z,6.62
2022-12-27T23:14:41.194Z,7.55
2022-12-27T23:17:09.066Z,8.88
2022-12-27T23:19:37.281Z,5.47
2022-12-27T23:22:05.154Z,5.30
2022-12-27T23:24:36.292Z,6.45
2022-12-27T23:27:04.634Z,8.43
2022-12-27T23:29:32.564Z,5.72
2022-12-27T23:32:00.439Z,4.80
2022-12-27T23:34:29.429Z,5.62
2022-12-27T23:37:01.497Z,6.62
2022-12-27T23:39:29.867Z,6.37
2022-12-27T23:41:57.721Z,9.40
2022-12-27T23:44:33.854Z,5.25
2022-12-27T23:47:05.784Z,6.50
2022-12-27T23:49:34.327Z,7.85
2022-12-27T23:52:02.532Z,8.05
2022-12-27T23:54:30.866Z,11.27
2022-12-27T23:57:20.322Z,9.32
2022-12-27T23:59:51.540Z,12.80
